Time;durP1;ratioP1;P1;durP2;ratioP2;P2;SDS_P1;SDS_P2;PMS_P1;PMS_P2;Temp;Humidity;BMP_temperature;BMP_pressure;BME280_temperature;BME280_humidity;BME280_pressure;Samples;Min_cycle;Max_cycle;Signal;HPM_P1;HPM_P2
2022/10/17 00:00:45;;;;;;;3.43;0.60;;;12.10;99.90;;;;;;5034379;28;20219;-86
2022/10/17 00:03:11;;;;;;;1.07;0.50;;;12.20;99.90;;;;;;5033111;28;20414;-86
2022/10/17 00:05:41;;;;;;;2.83;0.80;;;12.20;99.90;;;;;;5034084;28;20464;-87
2022/10/17 00:08:08;;;;;;;1.90;1.20;;;12.20;99.90;;;;;;5033916;28;20426;-87
2022/10/17 00:10:34;;;;;;;5.67;1.07;;;12.10;99.90;;;;;;5034138;28;20406;-86
2022/10/17 00:12:59;;;;;;;1.50;0.73;;;12.10;99.90;;;;;;5034121;28;20420;-86
2022/10/17 00:15:25;;;;;;;2.47;1.10;;;12.00;99.90;;;;;;5033949;28;20173;-85
2022/10/17 00:17:50;;;;;;;5.53;1.30;;;12.10;99.90;;;;;;5034022;28;20537;-85
2022/10/17 00:20:16;;;;;;;2.63;1.30;;;12.10;99.90;;;;;;5034030;28;20257;-85
2022/10/17 00:22:42;;;;;;;2.93;1.23;;;12.30;99.90;;;;;;5033601;28;20338;-85
2022/10/17 00:25:08;;;;;;;2.03;1.10;;;12.20;99.90;;;;;;5033811;28;20413;-85
2022/10/17 00:27:35;;;;;;;1.03;0.60;;;12.30;99.90;;;;;;5033771;28;20248;-84
2022/10/17 00:30:01;;;;;;;2.10;1.23;;;12.30;99.90;;;;;;5033770;28;20413;-86
2022/10/17 00:32:27;;;;;;;3.33;0.70;;;12.30;99.90;;;;;;5032487;28;20507;-85
2022/10/17 00:34:52;;;;;;;2.97;1.10;;;12.30;99.90;;;;;;5033650;28;20167;-86
2022/10/17 00:37:18;;;;;;;3.00;1.00;;;12.30;99.90;;;;;;5033280;28;20171;-85
2022/10/17 00:39:43;;;;;;;1.90;0.77;;;12.30;99.90;;;;;;5033342;28;20178;-86
2022/10/17 00:42:11;;;;;;;4.00;0.70;;;12.30;99.90;;;;;;5033625;28;20199;-86
2022/10/17 00:44:40;;;;;;;1.53;0.53;;;12.30;99.90;;;;;;5033428;28;20654;-85
2022/10/17 00:47:13;;;;;;;3.83;1.07;;;12.30;99.90;;;;;;5033394;28;20895;-85
2022/10/17 00:49:39;;;;;;;4.93;1.03;;;12.30;99.90;;;;;;5032993;28;20413;-85
2022/10/17 00:52:12;;;;;;;5.20;1.17;;;12.20;99.90;;;;;;5033383;28;20459;-85
2022/10/17 00:54:43;;;;;;;2.10;0.70;;;12.20;99.90;;;;;;5033207;28;20934;-85
2022/10/17 00:57:09;;;;;;;1.93;0.70;;;12.20;99.90;;;;;;5033355;28;20396;-85
2022/10/17 00:59:38;;;;;;;3.73;0.60;;;12.20;99.90;;;;;;5033280;28;20964;-86
2022/10/17 01:02:07;;;;;;;5.47;1.53;;;12.20;99.90;;;;;;5033195;28;20407;-86
2022/10/17 01:04:32;;;;;;;1.37;0.33;;;12.20;99.90;;;;;;5033108;28;20417;-86
2022/10/17 01:06:58;;;;;;;2.77;1.10;;;12.10;99.90;;;;;;5032943;28;20503;-86
2022/10/17 01:09:25;;;;;;;4.00;0.83;;;12.20;99.90;;;;;;5032834;28;20177;-86
2022/10/17 01:12:14;;;;;;;3.50;1.00;;;12.20;99.90;;;;;;5033076;28;20172;-86
2022/10/17 01:15:04;;;;;;;1.83;0.63;;;12.30;99.90;;;;;;5033093;28;20508;-85
2022/10/17 01:17:32;;;;;;;1.90;0.47;;;12.30;99.90;;;;;;5032872;28;20421;-86
2022/10/17 01:20:35;;;;;;;1.97;0.90;;;12.30;99.90;;;;;;5033023;28;20744;-84
2022/10/17 01:23:27;;;;;;;1.57;0.70;;;12.30;99.90;;;;;;5032669;28;20414;-85
2022/10/17 01:26:16;;;;;;;1.50;0.57;;;12.30;99.90;;;;;;5032888;28;20412;-85
2022/10/17 01:29:10;;;;;;;1.00;0.20;;;12.30;99.90;;;;;;5018863;28;20799;-84
2022/10/17 01:31:47;;;;;;;3.77;2.83;;;12.20;99.90;;;;;;5032979;28;20463;-85
2022/10/17 01:34:27;;;;;;;1.93;1.10;;;12.20;99.90;;;;;;5032922;28;20405;-84
2022/10/17 01:37:01;;;;;;;3.13;1.00;;;12.20;99.90;;;;;;5032881;28;20407;-85
2022/10/17 01:39:45;;;;;;;3.13;0.67;;;12.20;99.90;;;;;;5032605;28;20837;-85
2022/10/17 01:42:29;;;;;;;2.77;0.60;;;12.20;99.90;;;;;;5032833;28;20413;-85
2022/10/17 01:45:02;;;;;;;2.50;0.40;;;12.20;99.90;;;;;;5032775;28;20418;-84
2022/10/17 01:47:31;;;;;;;1.83;1.27;;;12.20;99.90;;;;;;5032670;28;20516;-85
2022/10/17 01:50:03;;;;;;;3.43;1.20;;;12.20;99.90;;;;;;5032718;28;20418;-85
2022/10/17 01:52:54;;;;;;;1.80;1.00;;;12.20;99.90;;;;;;5032432;28;20424;-85
2022/10/17 01:55:27;;;;;;;2.33;0.70;;;12.30;99.90;;;;;;5021898;28;20422;-85
2022/10/17 01:57:58;;;;;;;4.10;1.00;;;12.30;99.90;;;;;;5032756;28;20598;-85
2022/10/17 02:00:26;;;;;;;2.60;0.80;;;12.30;99.90;;;;;;5032918;28;20406;-85
2022/10/17 02:02:58;;;;;;;1.80;1.10;;;12.20;99.90;;;;;;5036615;28;20845;-85
2022/10/17 02:05:28;;;;;;;1.40;0.60;;;12.30;99.90;;;;;;5036268;28;20465;-84
2022/10/17 02:07:53;;;;;;;1.77;1.43;;;12.30;99.90;;;;;;5036010;28;20988;-84
2022/10/17 02:10:31;;;;;;;1.93;0.70;;;12.30;99.90;;;;;;5036371;28;20416;-85
2022/10/17 02:13:17;;;;;;;2.30;1.30;;;12.30;99.90;;;;;;5036340;28;20660;-85
2022/10/17 02:15:51;;;;;;;3.27;1.00;;;12.30;99.90;;;;;;4995620;28;20969;-86
2022/10/17 02:18:51;;;;;;;3.47;1.07;;;12.30;99.90;;;;;;5034960;28;20439;-85
2022/10/17 02:21:32;;;;;;;5.47;0.90;;;12.30;99.90;;;;;;5036186;28;20457;-85
2022/10/17 02:24:14;;;;;;;3.77;0.90;;;12.30;99.90;;;;;;5035714;28;20510;-85
2022/10/17 02:27:05;;;;;;;2.47;0.83;;;12.30;99.90;;;;;;5036086;28;20478;-84
2022/10/17 02:29:38;;;;;;;1.53;0.80;;;12.40;99.90;;;;;;5036076;28;20420;-85
2022/10/17 02:32:07;;;;;;;1.30;0.43;;;12.40;99.90;;;;;;5036001;28;20404;-84
2022/10/17 02:34:52;;;;;;;3.53;0.97;;;12.40;99.90;;;;;;5035861;28;20429;-84
2022/10/17 02:37:23;;;;;;;1.80;0.50;;;12.40;99.90;;;;;;5035533;28;20412;-84
2022/10/17 02:39:50;;;;;;;4.73;1.13;;;12.40;99.90;;;;;;5035816;28;20421;-85
2022/10/17 02:42:19;;;;;;;1.90;0.50;;;12.40;99.90;;;;;;5035796;28;20764;-85
2022/10/17 02:44:45;;;;;;;7.27;1.27;;;12.50;99.90;;;;;;5035800;28;20417;-84
2022/10/17 02:47:45;;;;;;;4.03;1.80;;;12.60;99.90;;;;;;5035605;28;20474;-85
2022/10/17 02:50:11;;;;;;;6.80;1.17;;;12.60;99.90;;;;;;5035619;28;20433;-86
2022/10/17 02:52:59;;;;;;;3.70;1.03;;;12.70;99.90;;;;;;5035304;28;21096;-85
2022/10/17 02:55:32;;;;;;;2.57;0.90;;;12.70;99.90;;;;;;5035555;28;20175;-85
2022/10/17 02:58:09;;;;;;;2.07;0.97;;;12.70;99.90;;;;;;5035422;28;20413;-85
2022/10/17 03:00:36;;;;;;;3.60;1.50;;;12.80;99.90;;;;;;5035390;28;20474;-85
2022/10/17 03:03:18;;;;;;;2.03;1.27;;;12.90;99.90;;;;;;5035437;28;20422;-85
2022/10/17 03:05:43;;;;;;;3.63;1.20;;;13.00;99.90;;;;;;5033704;28;20506;-85
2022/10/17 03:08:10;;;;;;;2.33;1.33;;;13.20;99.90;;;;;;5033622;28;20521;-84
2022/10/17 03:10:36;;;;;;;2.33;1.13;;;13.20;99.90;;;;;;5033893;28;20579;-85
2022/10/17 03:13:01;;;;;;;1.80;0.90;;;13.20;99.90;;;;;;5034403;28;20508;-86
2022/10/17 03:15:33;;;;;;;2.20;0.80;;;13.20;99.90;;;;;;5033288;28;20268;-85
2022/10/17 03:17:58;;;;;;;4.30;0.87;;;13.20;99.90;;;;;;5035176;28;20167;-85
2022/10/17 03:20:24;;;;;;;3.63;0.67;;;13.10;99.90;;;;;;5035112;28;20840;-85
2022/10/17 03:22:49;;;;;;;1.73;0.90;;;13.10;99.90;;;;;;5034668;28;20226;-85
2022/10/17 03:25:15;;;;;;;1.80;1.10;;;13.20;99.90;;;;;;5035038;28;20174;-85
2022/10/17 03:27:40;;;;;;;3.43;0.80;;;13.10;99.90;;;;;;5034863;28;20806;-85
2022/10/17 03:30:06;;;;;;;1.03;0.80;;;13.20;99.90;;;;;;5034880;28;20182;-85
2022/10/17 03:32:33;;;;;;;3.23;0.60;;;13.10;99.90;;;;;;5034821;28;20192;-85
2022/10/17 03:34:58;;;;;;;1.27;0.80;;;13.10;99.90;;;;;;5034839;28;20413;-85
2022/10/17 03:37:24;;;;;;;6.33;0.97;;;13.00;99.90;;;;;;5034360;28;20417;-85
2022/10/17 03:39:49;;;;;;;0.77;0.37;;;13.00;99.90;;;;;;5034779;28;20172;-86
2022/10/17 03:42:14;;;;;;;2.90;0.60;;;13.00;99.90;;;;;;5033523;28;20511;-85
2022/10/17 03:44:40;;;;;;;1.37;0.40;;;13.00;99.90;;;;;;5034621;28;20173;-84
2022/10/17 03:47:05;;;;;;;1.40;0.60;;;13.00;99.90;;;;;;5034522;28;20218;-84
2022/10/17 03:49:31;;;;;;;1.50;0.40;;;12.90;99.90;;;;;;5034545;28;20180;-84
2022/10/17 03:51:56;;;;;;;1.27;0.47;;;12.90;99.90;;;;;;5034208;28;20183;-84
2022/10/17 03:54:22;;;;;;;2.17;0.70;;;12.90;99.90;;;;;;5034399;28;20168;-84
2022/10/17 03:56:47;;;;;;;1.57;0.60;;;12.80;99.90;;;;;;5033075;28;20170;-84
2022/10/17 03:59:14;;;;;;;1.63;0.67;;;12.70;99.90;;;;;;5034320;28;20177;-85
2022/10/17 04:01:40;;;;;;;2.00;0.60;;;12.60;99.90;;;;;;5034277;28;20179;-85
2022/10/17 04:04:06;;;;;;;1.00;0.50;;;12.70;99.90;;;;;;5033040;28;20435;-85
2022/10/17 04:06:31;;;;;;;1.77;1.03;;;12.70;99.90;;;;;;5033946;28;20547;-85
2022/10/17 04:08:57;;;;;;;1.30;0.50;;;12.70;99.90;;;;;;5033796;28;20629;-85
2022/10/17 04:11:23;;;;;;;1.50;0.63;;;12.70;99.90;;;;;;5034070;28;20597;-84
2022/10/17 04:13:53;;;;;;;3.87;0.97;;;12.60;99.90;;;;;;5034047;28;20452;-84
2022/10/17 04:16:19;;;;;;;1.83;0.63;;;12.60;99.90;;;;;;5034052;28;20172;-84
2022/10/17 04:18:44;;;;;;;1.93;1.00;;;12.60;99.90;;;;;;5034018;28;20412;-84
2022/10/17 04:21:11;;;;;;;1.73;1.03;;;12.60;99.90;;;;;;5032942;28;20194;-84
2022/10/17 04:23:37;;;;;;;4.43;0.67;;;12.60;99.90;;;;;;5031578;28;20541;-86
2022/10/17 04:26:06;;;;;;;2.50;1.27;;;12.60;99.90;;;;;;5033800;28;20990;-84
2022/10/17 04:28:32;;;;;;;1.83;1.30;;;12.60;99.90;;;;;;5033804;28;20548;-85
2022/10/17 04:30:59;;;;;;;1.03;0.43;;;12.50;99.90;;;;;;5033971;28;20409;-84
2022/10/17 04:33:25;;;;;;;2.30;0.70;;;12.50;99.90;;;;;;5033752;28;20427;-84
2022/10/17 04:35:59;;;;;;;1.00;0.70;;;12.40;99.90;;;;;;5033780;28;20411;-84
2022/10/17 04:38:26;;;;;;;3.03;0.30;;;12.40;99.90;;;;;;5033380;28;20415;-85
2022/10/17 04:40:51;;;;;;;1.47;0.67;;;12.40;99.90;;;;;;5033908;28;20408;-84
2022/10/17 04:43:17;;;;;;;1.40;0.60;;;12.30;99.90;;;;;;5033611;28;20417;-85
2022/10/17 04:45:42;;;;;;;1.23;0.83;;;12.30;99.90;;;;;;5033534;28;20236;-84
2022/10/17 04:48:08;;;;;;;2.37;0.60;;;12.30;99.90;;;;;;5033534;28;20213;-85
2022/10/17 04:50:34;;;;;;;1.10;0.70;;;12.30;99.90;;;;;;5033362;28;20593;-83
2022/10/17 04:53:02;;;;;;;2.83;1.90;;;12.30;99.90;;;;;;5033059;28;20508;-84
2022/10/17 04:55:28;;;;;;;4.13;0.80;;;12.20;99.90;;;;;;5033347;28;20182;-84
2022/10/17 04:57:53;;;;;;;1.73;0.53;;;12.20;99.90;;;;;;5033426;28;20484;-84
2022/10/17 05:00:19;;;;;;;1.23;0.73;;;12.30;99.90;;;;;;5032179;28;20532;-84
2022/10/17 05:02:47;;;;;;;1.00;0.40;;;12.30;99.90;;;;;;5033168;28;20245;-84
2022/10/17 05:05:13;;;;;;;1.20;0.57;;;12.10;99.90;;;;;;5032430;28;20218;-84
2022/10/17 05:07:39;;;;;;;4.00;0.50;;;12.10;99.90;;;;;;5032563;28;20476;-84
2022/10/17 05:10:06;;;;;;;1.20;0.80;;;12.10;99.90;;;;;;5033141;28;20181;-83
2022/10/17 05:12:31;;;;;;;1.50;0.83;;;12.00;99.90;;;;;;5033131;28;20468;-84
2022/10/17 05:14:57;;;;;;;1.60;0.97;;;12.00;99.90;;;;;;5033080;28;20500;-84
2022/10/17 05:17:22;;;;;;;2.97;0.63;;;12.00;99.90;;;;;;5031801;28;20166;-84
2022/10/17 05:19:48;;;;;;;1.73;1.47;;;12.00;99.90;;;;;;5031750;28;20169;-85
2022/10/17 05:22:13;;;;;;;2.00;0.63;;;12.00;99.90;;;;;;5032730;28;20212;-83
2022/10/17 05:24:39;;;;;;;3.50;0.60;;;11.90;99.90;;;;;;5032997;28;20560;-83
2022/10/17 05:27:04;;;;;;;8.40;2.03;;;11.90;99.90;;;;;;5032916;28;20638;-84
2022/10/17 05:29:30;;;;;;;1.33;0.83;;;11.90;99.90;;;;;;5031507;28;20186;-84
2022/10/17 05:31:56;;;;;;;1.60;0.40;;;11.90;99.90;;;;;;5031433;28;20203;-84
2022/10/17 05:34:21;;;;;;;1.17;0.57;;;11.90;99.90;;;;;;5031475;28;20174;-84
2022/10/17 05:36:47;;;;;;;2.37;1.43;;;11.80;99.90;;;;;;5036360;28;20409;-84
2022/10/17 05:39:13;;;;;;;1.70;0.90;;;11.90;99.90;;;;;;5036704;28;20657;-84
2022/10/17 05:41:39;;;;;;;3.33;0.67;;;11.80;99.90;;;;;;5036638;28;20168;-84
2022/10/17 05:44:04;;;;;;;4.67;1.13;;;11.80;99.90;;;;;;5036644;28;20524;-84
2022/10/17 05:46:30;;;;;;;1.60;0.57;;;11.80;99.90;;;;;;5036714;28;20928;-84
2022/10/17 05:48:55;;;;;;;4.50;1.20;;;11.80;99.90;;;;;;5036712;28;20188;-84
2022/10/17 05:51:21;;;;;;;1.20;0.97;;;11.80;99.90;;;;;;5036613;28;20248;-84
2022/10/17 05:53:47;;;;;;;2.30;1.13;;;11.90;99.90;;;;;;5036486;28;20201;-84
2022/10/17 05:56:13;;;;;;;4.13;0.73;;;11.80;99.90;;;;;;5036651;28;20169;-86
2022/10/17 05:58:44;;;;;;;3.23;1.20;;;11.90;99.90;;;;;;5036602;28;20164;-84
2022/10/17 06:01:11;;;;;;;1.00;0.60;;;11.90;99.90;;;;;;5036527;28;20908;-83
2022/10/17 06:03:36;;;;;;;3.63;0.77;;;11.90;99.90;;;;;;5036378;28;20953;-85
2022/10/17 06:06:04;;;;;;;1.37;0.80;;;12.00;99.90;;;;;;5036177;28;20498;-85
2022/10/17 06:08:30;;;;;;;2.50;1.20;;;12.00;99.90;;;;;;5036086;28;20515;-85
2022/10/17 06:10:56;;;;;;;3.33;1.23;;;12.00;99.90;;;;;;5036367;28;20418;-85
2022/10/17 06:13:21;;;;;;;1.40;0.60;;;12.00;99.90;;;;;;5036390;28;20235;-84
2022/10/17 06:15:47;;;;;;;2.50;1.30;;;12.10;99.90;;;;;;5036354;28;20172;-84
2022/10/17 06:18:12;;;;;;;6.03;1.07;;;12.10;99.90;;;;;;5036289;28;20245;-86
2022/10/17 06:20:38;;;;;;;2.00;1.03;;;12.10;99.90;;;;;;5035016;28;20181;-85
2022/10/17 06:23:07;;;;;;;2.60;0.90;;;12.20;99.90;;;;;;5035931;28;20528;-85
2022/10/17 06:25:33;;;;;;;1.97;0.77;;;12.30;99.90;;;;;;5036434;28;20182;-84
2022/10/17 06:27:59;;;;;;;2.87;1.50;;;12.30;99.90;;;;;;5036320;28;20471;-85
2022/10/17 06:30:25;;;;;;;3.20;2.70;;;12.40;99.90;;;;;;5034882;28;20429;-84
2022/10/17 06:32:54;;;;;;;4.20;2.17;;;12.40;99.90;;;;;;5034901;28;20169;-85
2022/10/17 06:35:20;;;;;;;2.67;1.30;;;12.50;99.90;;;;;;5036150;28;20195;-86
2022/10/17 06:37:45;;;;;;;5.40;1.80;;;12.50;99.90;;;;;;5035680;28;20882;-85
2022/10/17 06:40:13;;;;;;;2.90;1.17;;;12.60;99.90;;;;;;5034667;28;20944;-85
2022/10/17 06:42:39;;;;;;;3.23;1.07;;;12.70;99.90;;;;;;5034449;28;20598;-85
2022/10/17 06:45:06;;;;;;;1.57;0.73;;;12.70;99.90;;;;;;5035621;28;20425;-84
2022/10/17 06:47:32;;;;;;;2.10;1.47;;;12.70;99.90;;;;;;5034529;28;20987;-84
2022/10/17 06:49:57;;;;;;;5.13;1.20;;;12.70;99.90;;;;;;5034384;28;20490;-84
2022/10/17 06:52:22;;;;;;;2.80;1.13;;;12.80;99.90;;;;;;5035373;28;20257;-84
2022/10/17 06:54:50;;;;;;;2.03;1.50;;;13.00;99.90;;;;;;5035713;28;20623;-84
2022/10/17 06:57:16;;;;;;;2.17;1.20;;;13.10;99.90;;;;;;5035576;28;20555;-87
2022/10/17 06:59:41;;;;;;;1.93;0.70;;;13.20;99.90;;;;;;5035633;28;20414;-86
2022/10/17 07:02:09;;;;;;;3.63;1.23;;;13.20;99.90;;;;;;5035513;28;20174;-86
2022/10/17 07:04:35;;;;;;;8.27;1.13;;;13.30;99.90;;;;;;5035619;28;20170;-85
2022/10/17 07:07:01;;;;;;;2.20;0.40;;;13.40;99.90;;;;;;5034881;28;20571;-85
2022/10/17 07:09:28;;;;;;;4.77;1.20;;;13.60;99.90;;;;;;5036850;28;20174;-84
2022/10/17 07:11:53;;;;;;;2.30;1.00;;;13.70;99.90;;;;;;5035400;28;20941;-84
2022/10/17 07:14:19;;;;;;;2.00;1.03;;;13.80;99.90;;;;;;5035260;28;20409;-85
2022/10/17 07:16:44;;;;;;;2.33;1.00;;;13.80;99.90;;;;;;5035244;28;20226;-84
2022/10/17 07:19:10;;;;;;;1.80;0.90;;;14.10;99.90;;;;;;5035298;28;20194;-84
2022/10/17 07:21:35;;;;;;;1.63;0.70;;;14.30;99.90;;;;;;5034763;28;20177;-85
2022/10/17 07:24:01;;;;;;;2.10;1.10;;;14.60;99.90;;;;;;5035131;28;20169;-85
2022/10/17 07:26:26;;;;;;;2.00;0.93;;;15.10;99.90;;;;;;5035044;28;20206;-85
2022/10/17 07:28:54;;;;;;;4.70;0.90;;;15.50;99.90;;;;;;5035151;28;20252;-83
2022/10/17 07:31:21;;;;;;;3.27;0.90;;;15.30;99.90;;;;;;5035116;28;20195;-85
2022/10/17 07:33:47;;;;;;;1.37;0.83;;;15.50;99.90;;;;;;5035305;28;20939;-86
2022/10/17 07:36:13;;;;;;;1.53;0.97;;;15.20;99.90;;;;;;5034679;28;20406;-84
2022/10/17 07:38:39;;;;;;;2.77;1.20;;;14.90;99.90;;;;;;5034755;28;20185;-85
2022/10/17 07:41:06;;;;;;;2.50;0.70;;;14.80;99.90;;;;;;5034776;28;20408;-86
2022/10/17 07:43:32;;;;;;;1.40;0.80;;;14.70;99.90;;;;;;5033601;28;20526;-84
2022/10/17 07:46:02;;;;;;;1.80;1.20;;;15.90;99.90;;;;;;5034908;28;20422;-85
2022/10/17 07:48:28;;;;;;;1.73;0.63;;;17.80;99.90;;;;;;5034737;28;20456;-86
2022/10/17 07:50:53;;;;;;;2.10;0.70;;;16.50;19.90;;;;;;5034627;28;20420;-85
2022/10/17 07:53:19;;;;;;;2.50;1.10;;;17.50;1.00;;;;;;5034359;28;20423;-85
2022/10/17 07:55:45;;;;;;;1.60;0.67;;;18.40;99.90;;;;;;5034617;28;20697;-85
2022/10/17 07:58:11;;;;;;;1.07;0.80;;;18.30;1.00;;;;;;5034395;28;20213;-85
2022/10/17 08:00:37;;;;;;;1.60;0.53;;;18.40;99.90;;;;;;5034445;28;20432;-85
2022/10/17 08:03:03;;;;;;;2.23;0.70;;;19.20;1.00;;;;;;5034425;28;20902;-89
2022/10/17 08:05:29;;;;;;;1.50;0.60;;;20.80;99.90;;;;;;5032825;28;20227;-85
2022/10/17 08:07:54;;;;;;;1.20;0.70;;;21.10;1.00;;;;;;5033904;28;20208;-85
2022/10/17 08:10:20;;;;;;;4.80;1.07;;;22.00;1.00;;;;;;5034204;28;20462;-85
2022/10/17 08:12:46;;;;;;;1.20;0.40;;;21.20;1.00;;;;;;5034287;28;20170;-86
2022/10/17 08:15:11;;;;;;;2.43;0.83;;;19.40;99.90;;;;;;5035234;28;20423;-85
2022/10/17 08:17:37;;;;;;;1.90;0.50;;;18.20;1.00;;;;;;5034136;28;20179;-86
2022/10/17 08:20:04;;;;;;;3.97;0.97;;;17.90;1.00;;;;;;5034128;28;20258;-85
2022/10/17 08:22:30;;;;;;;1.80;1.03;;;18.00;1.00;;;;;;5033966;28;20171;-85
2022/10/17 08:24:56;;;;;;;1.63;0.80;;;19.20;99.90;;;;;;5032788;28;20461;-85
2022/10/17 08:27:23;;;;;;;2.47;0.50;;;19.60;99.90;;;;;;5033868;28;20211;-85
2022/10/17 08:29:53;;;;;;;1.23;0.60;;;19.60;99.90;;;;;;5034081;28;20190;-87
2022/10/17 08:32:24;;;;;;;1.50;0.43;;;18.40;1.00;;;;;;5033983;28;20420;-87
2022/10/17 08:34:50;;;;;;;2.13;0.50;;;18.10;1.00;;;;;;5033858;28;20405;-89
2022/10/17 08:37:16;;;;;;;1.47;0.63;;;18.00;1.00;;;;;;5033609;28;20418;-86
2022/10/17 08:39:41;;;;;;;1.60;0.90;;;18.30;1.00;;;;;;5033960;28;20503;-86
2022/10/17 08:42:30;;;;;;;1.67;0.60;;;18.40;1.00;;;;;;5033990;28;20232;-87
2022/10/17 08:45:19;;;;;;;2.00;0.40;;;18.90;1.00;;;;;;5033615;28;20179;-86
2022/10/17 08:47:48;;;;;;;1.23;0.73;;;19.10;1.00;;;;;;5033842;28;20834;-86
2022/10/17 08:50:38;;;;;;;0.87;0.30;;;19.20;1.00;;;;;;5033871;28;20420;-87
2022/10/17 08:53:14;;;;;;;1.20;0.40;;;19.10;1.00;;;;;;5033511;28;20418;-88
2022/10/17 08:55:44;;;;;;;1.27;0.43;;;20.40;99.90;;;;;;5034697;28;20512;-89
2022/10/17 08:58:18;;;;;;;1.17;0.40;;;20.20;1.00;;;;;;5033598;28;20522;-87
2022/10/17 09:00:59;;;;;;;1.70;0.37;;;21.00;1.00;;;;;;5033641;28;20423;-86
2022/10/17 09:03:37;;;;;;;1.53;0.50;;;21.80;1.00;;;;;;5033719;28;20511;-88
2022/10/17 09:06:14;;;;;;;1.10;0.40;;;20.10;99.90;;;;;;5033284;28;20834;-87
2022/10/17 09:09:09;;;;;;;3.73;0.63;;;19.60;1.00;;;;;;5033622;28;20419;-87
2022/10/17 09:11:42;;;;;;;1.77;0.57;;;19.60;1.00;;;;;;5033584;28;20413;-86
2022/10/17 09:14:44;;;;;;;1.60;0.40;;;20.90;99.90;;;;;;5033550;28;20420;-86
2022/10/17 09:17:43;;;;;;;1.57;0.30;;;22.20;1.00;;;;;;5033561;28;20415;-89
2022/10/17 09:20:20;;;;;;;2.90;1.27;;;23.60;1.00;;;;;;5033583;28;20413;-86
2022/10/17 09:22:57;;;;;;;1.57;0.40;;;24.30;1.00;;;;;;5033140;28;20412;-86
2022/10/17 09:25:24;;;;;;;2.00;0.40;;;25.60;99.90;;;;;;5033415;28;20417;-88
2022/10/17 09:28:08;;;;;;;2.30;0.77;;;24.40;99.90;;;;;;5033328;28;20472;-87
2022/10/17 09:30:46;;;;;;;1.30;0.50;;;22.30;99.90;;;;;;5033198;28;20409;-87
2022/10/17 09:33:25;;;;;;;0.90;0.20;;;22.20;1.00;;;;;;5032984;28;20409;-88
2022/10/17 09:35:51;;;;;;;1.60;0.60;;;22.50;1.00;;;;;;5031496;28;20764;-85
2022/10/17 09:38:22;;;;;;;1.37;0.30;;;21.90;1.00;;;;;;5033035;28;20467;-88
2022/10/17 09:40:54;;;;;;;1.67;0.60;;;21.70;1.00;;;;;;5032940;28;20504;-86
2022/10/17 09:43:21;;;;;;;2.50;0.50;;;21.70;21.80;;;;;;5032898;28;20413;-87
2022/10/17 09:46:01;;;;;;;4.37;1.03;;;21.40;99.90;;;;;;5033008;28;20902;-88
2022/10/17 09:48:50;;;;;;;2.50;0.87;;;21.30;1.00;;;;;;5033003;28;20447;-86
2022/10/17 09:51:19;;;;;;;1.53;0.50;;;21.20;99.90;;;;;;5032638;28;20405;-86
2022/10/17 09:53:55;;;;;;;1.23;0.60;;;21.50;1.00;;;;;;5032818;28;20439;-86
2022/10/17 09:56:21;;;;;;;3.07;0.40;;;21.50;99.90;;;;;;5033020;28;20772;-85
2022/10/17 09:58:51;;;;;;;1.47;0.80;;;22.20;1.00;;;;;;5032921;28;20466;-86
2022/10/17 10:01:28;;;;;;;1.73;0.57;;;22.30;12.30;;;;;;5032784;28;20241;-86
2022/10/17 10:04:14;;;;;;;2.00;0.80;;;23.00;99.90;;;;;;5032730;28;20415;-87
2022/10/17 10:06:41;;;;;;;1.50;0.80;;;22.70;1.00;;;;;;5032045;28;20824;-86
2022/10/17 10:09:20;;;;;;;3.03;0.33;;;23.10;33.90;;;;;;5032620;28;20420;-86
2022/10/17 10:11:52;;;;;;;1.40;0.50;;;23.20;99.90;;;;;;5032663;28;20802;-86
2022/10/17 10:14:22;;;;;;;3.07;1.07;;;23.40;1.00;;;;;;5032558;28;20759;-87
2022/10/17 10:16:50;;;;;;;1.00;0.40;;;22.40;1.00;;;;;;5032673;28;20875;-86
2022/10/17 10:19:29;;;;;;;1.30;0.60;;;22.00;99.90;;;;;;5032704;28;20494;-86
2022/10/17 10:21:57;;;;;;;2.33;0.50;;;21.50;1.00;;;;;;5033597;28;20401;-86
2022/10/17 10:24:24;;;;;;;1.33;0.53;;;21.50;1.00;;;;;;5036338;28;20409;-86
2022/10/17 10:26:53;;;;;;;1.47;0.90;;;21.50;99.90;;;;;;5035019;28;20475;-86
2022/10/17 10:29:37;;;;;;;1.60;0.73;;;21.50;99.90;;;;;;5035004;28;20429;-87
2022/10/17 10:32:25;;;;;;;2.40;0.50;;;21.50;99.90;;;;;;5036408;28;20452;-86
2022/10/17 10:34:56;;;;;;;1.67;0.60;;;21.70;1.00;;;;;;5036289;28;20416;-87
2022/10/17 10:37:43;;;;;;;1.37;0.50;;;21.70;1.00;;;;;;5034632;28;20456;-87
2022/10/17 10:40:19;;;;;;;2.80;0.60;;;21.90;99.90;;;;;;5036086;28;20417;-86
2022/10/17 10:42:53;;;;;;;2.43;0.83;;;22.40;1.00;;;;;;5036253;28;20409;-87
2022/10/17 10:45:28;;;;;;;1.80;0.70;;;22.10;1.00;;;;;;5036764;28;20424;-86
2022/10/17 10:47:59;;;;;;;3.50;1.10;;;21.90;50.90;;;;;;5036343;28;20466;-86
2022/10/17 10:50:49;;;;;;;3.83;0.97;;;21.60;40.30;;;;;;5037092;28;20417;-84
2022/10/17 10:53:40;;;;;;;1.27;0.80;;;21.50;99.90;;;;;;5035209;28;20428;-86
2022/10/17 10:56:25;;;;;;;1.17;0.33;;;21.50;99.90;;;;;;5035827;28;20440;-87
2022/10/17 10:59:11;;;;;;;6.53;1.10;;;21.20;1.00;;;;;;5035623;28;20412;-87
2022/10/17 11:01:58;;;;;;;1.77;0.50;;;21.20;1.00;;;;;;5035602;28;20423;-86
2022/10/17 11:04:44;;;;;;;1.60;0.97;;;21.10;1.00;;;;;;5035482;28;20406;-85
2022/10/17 11:07:19;;;;;;;1.50;0.90;;;21.00;1.00;;;;;;5035027;28;20473;-84
2022/10/17 11:09:47;;;;;;;1.87;0.80;;;20.90;1.00;;;;;;5035387;28;20426;-86
2022/10/17 11:12:29;;;;;;;1.80;0.80;;;20.80;1.00;;;;;;5035266;28;20415;-86
2022/10/17 11:15:13;;;;;;;2.03;0.70;;;20.80;1.00;;;;;;5026298;28;20430;-84
2022/10/17 11:17:56;;;;;;;1.90;0.57;;;20.70;59.50;;;;;;5034572;28;20454;-86
2022/10/17 11:20:43;;;;;;;2.23;0.70;;;20.70;75.60;;;;;;5035145;28;20490;-84
2022/10/17 11:23:33;;;;;;;2.47;0.77;;;20.80;1.00;;;;;;5034728;28;20420;-84
2022/10/17 11:26:06;;;;;;;1.50;0.80;;;20.90;1.00;;;;;;5035087;28;20485;-84
2022/10/17 11:28:32;;;;;;;2.50;1.27;;;21.30;1.00;;;;;;5035009;28;20505;-85
2022/10/17 11:31:08;;;;;;;1.60;0.77;;;21.30;1.00;;;;;;5035007;28;20519;-85
2022/10/17 11:33:53;;;;;;;1.60;0.50;;;21.50;1.00;;;;;;5034517;28;20193;-84
2022/10/17 11:36:24;;;;;;;2.33;0.83;;;21.70;1.00;;;;;;5034623;28;20486;-84
2022/10/17 11:39:04;;;;;;;4.20;1.07;;;21.70;1.00;;;;;;5034902;28;20863;-87
2022/10/17 11:41:47;;;;;;;1.43;0.47;;;21.60;1.00;;;;;;5023289;28;20951;-85
2022/10/17 11:44:26;;;;;;;6.17;0.73;;;21.50;1.00;;;;;;5032673;28;20778;-87
2022/10/17 11:47:17;;;;;;;3.03;0.93;;;21.40;1.00;;;;;;5034546;28;20463;-86
2022/10/17 11:50:16;;;;;;;1.73;1.00;;;21.30;1.00;;;;;;5007383;28;20432;-84
2022/10/17 11:52:51;;;;;;;2.30;1.17;;;21.40;1.00;;;;;;5030430;28;20822;-86
2022/10/17 11:55:21;;;;;;;3.03;1.27;;;21.40;50.60;;;;;;5030367;28;20419;-86
2022/10/17 11:58:23;;;;;;;1.70;1.10;;;21.30;1.00;;;;;;5023327;28;20496;-85
2022/10/17 12:01:07;;;;;;;6.63;1.93;;;21.20;1.00;;;;;;5026385;28;21005;-85
2022/10/17 12:03:48;;;;;;;5.40;1.93;;;21.20;1.00;;;;;;5024420;28;20420;-85
2022/10/17 12:06:41;;;;;;;3.87;1.70;;;21.10;71.20;;;;;;5026405;28;20447;-83
2022/10/17 12:09:18;;;;;;;4.80;0.90;;;21.00;99.90;;;;;;5024331;28;20454;-82
2022/10/17 12:11:59;;;;;;;3.20;1.17;;;20.90;5.10;;;;;;5024797;28;20493;-82
2022/10/17 12:14:24;;;;;;;5.00;1.50;;;20.80;99.90;;;;;;5025982;28;20759;-84
2022/10/17 12:16:51;;;;;;;2.60;1.50;;;20.80;93.60;;;;;;5024123;28;20423;-84
2022/10/17 12:19:24;;;;;;;2.00;0.97;;;20.70;99.90;;;;;;5021401;28;20179;-85
2022/10/17 12:21:59;;;;;;;1.57;0.90;;;20.70;79.30;;;;;;5023450;28;20491;-84
2022/10/17 12:24:34;;;;;;;2.70;1.00;;;20.60;43.50;;;;;;5023335;28;20774;-85
2022/10/17 12:27:46;;;;;;;2.33;0.90;;;20.50;97.30;;;;;;5024838;28;20475;-83
2022/10/17 12:30:30;;;;;;;2.93;0.90;;;20.40;99.90;;;;;;5018268;28;20435;-84
2022/10/17 12:33:17;;;;;;;1.57;0.90;;;20.40;99.90;;;;;;5026443;28;20438;-85
2022/10/17 12:35:43;;;;;;;3.03;0.97;;;20.40;99.90;;;;;;5024208;28;20503;-84
2022/10/17 12:38:21;;;;;;;2.00;0.73;;;20.40;99.90;;;;;;5025671;28;20509;-87
2022/10/17 12:40:50;;;;;;;2.30;0.63;;;20.40;99.90;;;;;;5021709;28;20169;-85
2022/10/17 12:43:16;;;;;;;2.60;1.40;;;20.50;99.90;;;;;;5021804;28;20420;-85
2022/10/17 12:45:56;;;;;;;1.90;1.03;;;20.40;99.90;;;;;;5021506;28;20952;-86
2022/10/17 12:48:37;;;;;;;4.07;1.17;;;20.40;99.90;;;;;;5022394;28;20267;-85
2022/10/17 12:51:09;;;;;;;4.17;1.30;;;20.40;99.90;;;;;;5023882;28;20415;-85
2022/10/17 12:53:53;;;;;;;3.33;2.10;;;20.40;17.20;;;;;;5024151;28;20412;-85
2022/10/17 12:56:31;;;;;;;5.13;1.50;;;20.30;96.90;;;;;;5023810;28;21071;-85
2022/10/17 12:58:58;;;;;;;4.97;1.73;;;20.20;99.90;;;;;;5022490;28;20423;-85
2022/10/17 13:01:30;;;;;;;1.77;0.80;;;20.10;99.90;;;;;;5023380;28;20763;-84
2022/10/17 13:04:05;;;;;;;2.43;1.63;;;20.10;99.90;;;;;;5023047;28;20420;-84
2022/10/17 13:06:46;;;;;;;2.13;1.03;;;20.00;99.90;;;;;;5022941;28;20468;-84
2022/10/17 13:09:31;;;;;;;3.77;0.70;;;19.90;99.90;;;;;;5023649;28;20431;-86
2022/10/17 13:11:59;;;;;;;2.23;0.90;;;20.00;99.90;;;;;;5023872;28;20824;-84